sensor_id;sensor_type;location;lat;lon;timestamp;temperature;humidity
7958;DHT22;4024;52.172;5.378;2023-05-19T00:00:54;12.90;99.90
7958;DHT22;4024;52.172;5.378;2023-05-19T00:03:19;12.90;99.90
7958;DHT22;4024;52.172;5.378;2023-05-19T00:05:47;12.90;99.90
7958;DHT22;4024;52.172;5.378;2023-05-19T00:08:15;12.90;99.90
7958;DHT22;4024;52.172;5.378;2023-05-19T00:10:41;12.90;99.90
7958;DHT22;4024;52.172;5.378;2023-05-19T00:13:07;12.80;99.90
7958;DHT22;4024;52.172;5.378;2023-05-19T00:15:33;12.80;99.90
7958;DHT22;4024;52.172;5.378;2023-05-19T00:17:59;12.70;99.90
7958;DHT22;4024;52.172;5.378;2023-05-19T00:20:25;12.70;99.90
7958;DHT22;4024;52.172;5.378;2023-05-19T00:22:50;12.70;99.90
7958;DHT22;4024;52.172;5.378;2023-05-19T00:25:16;12.60;99.90
7958;DHT22;4024;52.172;5.378;2023-05-19T00:27:41;12.60;99.90
7958;DHT22;4024;52.172;5.378;2023-05-19T00:30:07;12.60;99.90
7958;DHT22;4024;52.172;5.378;2023-05-19T00:32:33;12.50;99.90
7958;DHT22;4024;52.172;5.378;2023-05-19T00:34:59;12.50;99.90
7958;DHT22;4024;52.172;5.378;2023-05-19T00:37:25;12.50;99.90
7958;DHT22;4024;52.172;5.378;2023-05-19T00:39:52;12.50;99.90
7958;DHT22;4024;52.172;5.378;2023-05-19T00:42:18;12.40;99.90
7958;DHT22;4024;52.172;5.378;2023-05-19T00:44:44;12.40;99.90
7958;DHT22;4024;52.172;5.378;2023-05-19T00:47:10;12.40;99.90
7958;DHT22;4024;52.172;5.378;2023-05-19T00:49:35;12.40;99.90
7958;DHT22;4024;52.172;5.378;2023-05-19T00:52:01;12.30;99.90
7958;DHT22;4024;52.172;5.378;2023-05-19T00:54:27;12.30;99.90
7958;DHT22;4024;52.172;5.378;2023-05-19T00:56:54;12.30;99.90
7958;DHT22;4024;52.172;5.378;2023-05-19T00:59:21;12.30;99.90
7958;DHT22;4024;52.172;5.378;2023-05-19T01:01:47;12.20;99.90
7958;DHT22;4024;52.172;5.378;2023-05-19T01:04:19;12.20;99.90
7958;DHT22;4024;52.172;5.378;2023-05-19T01:06:49;12.20;99.90
7958;DHT22;4024;52.172;5.378;2023-05-19T01:09:20;12.10;99.90
7958;DHT22;4024;52.172;5.378;2023-05-19T01:11:47;12.10;99.90
7958;DHT22;4024;52.172;5.378;2023-05-19T01:14:12;12.10;99.90
7958;DHT22;4024;52.172;5.378;2023-05-19T01:30:23;12.00;99.90
7958;DHT22;4024;52.172;5.378;2023-05-19T01:32:52;11.90;99.90
7958;DHT22;4024;52.172;5.378;2023-05-19T01:35:21;11.90;99.90
7958;DHT22;4024;52.172;5.378;2023-05-19T01:37:48;11.90;99.90
7958;DHT22;4024;52.172;5.378;2023-05-19T01:40:14;11.90;99.90
7958;DHT22;4024;52.172;5.378;2023-05-19T01:42:41;11.80;99.90
7958;DHT22;4024;52.172;5.378;2023-05-19T01:45:07;11.80;99.90
7958;DHT22;4024;52.172;5.378;2023-05-19T01:47:40;11.80;99.90
7958;DHT22;4024;52.172;5.378;2023-05-19T01:50:06;11.80;99.90
7958;DHT22;4024;52.172;5.378;2023-05-19T01:52:32;11.80;99.90
7958;DHT22;4024;52.172;5.378;2023-05-19T01:54:57;11.80;99.90
7958;DHT22;4024;52.172;5.378;2023-05-19T02:03:08;11.70;99.90
7958;DHT22;4024;52.172;5.378;2023-05-19T02:08:40;11.60;99.90
7958;DHT22;4024;52.172;5.378;2023-05-19T02:11:13;11.60;99.90
7958;DHT22;4024;52.172;5.378;2023-05-19T02:13:43;11.60;99.90
7958;DHT22;4024;52.172;5.378;2023-05-19T02:16:09;11.60;99.90
7958;DHT22;4024;52.172;5.378;2023-05-19T02:18:39;11.50;99.90
7958;DHT22;4024;52.172;5.378;2023-05-19T02:21:04;11.60;99.90
7958;DHT22;4024;52.172;5.378;2023-05-19T02:23:31;11.50;99.90
7958;DHT22;4024;52.172;5.378;2023-05-19T02:25:56;11.50;99.90
7958;DHT22;4024;52.172;5.378;2023-05-19T02:28:22;11.50;99.90
7958;DHT22;4024;52.172;5.378;2023-05-19T02:30:48;11.50;99.90
7958;DHT22;4024;52.172;5.378;2023-05-19T02:33:13;11.50;99.90
7958;DHT22;4024;52.172;5.378;2023-05-19T02:35:39;11.50;99.90
7958;DHT22;4024;52.172;5.378;2023-05-19T02:38:05;11.50;99.90
7958;DHT22;4024;52.172;5.378;2023-05-19T02:40:30;11.40;99.90
7958;DHT22;4024;52.172;5.378;2023-05-19T02:42:57;11.50;99.90
7958;DHT22;4024;52.172;5.378;2023-05-19T02:45:22;11.50;99.90
7958;DHT22;4024;52.172;5.378;2023-05-19T02:47:48;11.40;99.90
7958;DHT22;4024;52.172;5.378;2023-05-19T02:50:13;11.40;99.90
7958;DHT22;4024;52.172;5.378;2023-05-19T02:52:39;11.40;99.90
7958;DHT22;4024;52.172;5.378;2023-05-19T02:55:05;11.40;99.90
7958;DHT22;4024;52.172;5.378;2023-05-19T02:57:33;11.30;99.90
7958;DHT22;4024;52.172;5.378;2023-05-19T02:59:59;11.30;99.90
7958;DHT22;4024;52.172;5.378;2023-05-19T03:02:25;11.30;99.90
7958;DHT22;4024;52.172;5.378;2023-05-19T03:04:50;11.30;99.90
7958;DHT22;4024;52.172;5.378;2023-05-19T03:07:16;11.30;99.90
7958;DHT22;4024;52.172;5.378;2023-05-19T03:09:41;11.30;99.90
7958;DHT22;4024;52.172;5.378;2023-05-19T03:12:07;11.20;99.90
7958;DHT22;4024;52.172;5.378;2023-05-19T03:14:34;11.20;99.90
7958;DHT22;4024;52.172;5.378;2023-05-19T03:17:02;11.20;99.90
7958;DHT22;4024;52.172;5.378;2023-05-19T03:19:27;11.10;99.90
7958;DHT22;4024;52.172;5.378;2023-05-19T03:21:53;11.10;99.90
7958;DHT22;4024;52.172;5.378;2023-05-19T03:24:20;11.10;99.90
7958;DHT22;4024;52.172;5.378;2023-05-19T03:26:46;11.10;99.90
7958;DHT22;4024;52.172;5.378;2023-05-19T03:29:12;11.10;99.90
7958;DHT22;4024;52.172;5.378;2023-05-19T03:31:37;11.10;99.90
7958;DHT22;4024;52.172;5.378;2023-05-19T03:34:03;11.00;99.90
7958;DHT22;4024;52.172;5.378;2023-05-19T03:36:28;11.00;99.90
7958;DHT22;4024;52.172;5.378;2023-05-19T03:38:58;11.00;99.90
7958;DHT22;4024;52.172;5.378;2023-05-19T03:41:24;11.10;99.90
7958;DHT22;4024;52.172;5.378;2023-05-19T03:43:49;11.00;99.90
7958;DHT22;4024;52.172;5.378;2023-05-19T03:46:15;11.00;99.90
7958;DHT22;4024;52.172;5.378;2023-05-19T03:48:40;11.00;99.90
7958;DHT22;4024;52.172;5.378;2023-05-19T03:51:06;10.90;99.90
7958;DHT22;4024;52.172;5.378;2023-05-19T03:53:33;10.90;99.90
7958;DHT22;4024;52.172;5.378;2023-05-19T03:55:59;10.90;99.90
7958;DHT22;4024;52.172;5.378;2023-05-19T03:58:25;10.90;99.90
7958;DHT22;4024;52.172;5.378;2023-05-19T04:00:51;10.90;99.90
7958;DHT22;4024;52.172;5.378;2023-05-19T04:03:16;10.90;99.90
7958;DHT22;4024;52.172;5.378;2023-05-19T04:05:42;10.90;99.90
7958;DHT22;4024;52.172;5.378;2023-05-19T04:08:07;10.90;99.90
7958;DHT22;4024;52.172;5.378;2023-05-19T04:10:33;10.90;99.90
7958;DHT22;4024;52.172;5.378;2023-05-19T04:12:58;10.90;99.90
7958;DHT22;4024;52.172;5.378;2023-05-19T04:15:24;11.00;99.90
7958;DHT22;4024;52.172;5.378;2023-05-19T04:17:50;10.90;99.90
7958;DHT22;4024;52.172;5.378;2023-05-19T04:20:16;10.90;99.90
7958;DHT22;4024;52.172;5.378;2023-05-19T04:22:41;11.00;99.90
7958;DHT22;4024;52.172;5.378;2023-05-19T04:25:07;11.00;99.90
7958;DHT22;4024;52.172;5.378;2023-05-19T04:27:33;11.00;99.90
7958;DHT22;4024;52.172;5.378;2023-05-19T04:30:04;11.00;99.90
7958;DHT22;4024;52.172;5.378;2023-05-19T04:32:30;11.00;99.90
7958;DHT22;4024;52.172;5.378;2023-05-19T04:34:56;11.00;99.90
7958;DHT22;4024;52.172;5.378;2023-05-19T04:37:25;11.00;99.90
7958;DHT22;4024;52.172;5.378;2023-05-19T04:39:51;11.00;99.90
7958;DHT22;4024;52.172;5.378;2023-05-19T04:42:17;11.00;99.90
7958;DHT22;4024;52.172;5.378;2023-05-19T04:44:46;11.10;99.90
7958;DHT22;4024;52.172;5.378;2023-05-19T04:47:13;11.10;99.90
7958;DHT22;4024;52.172;5.378;2023-05-19T04:49:39;11.10;99.90
7958;DHT22;4024;52.172;5.378;2023-05-19T04:52:06;11.10;99.90
7958;DHT22;4024;52.172;5.378;2023-05-19T04:54:33;11.10;99.90
7958;DHT22;4024;52.172;5.378;2023-05-19T04:56:59;11.20;99.90
7958;DHT22;4024;52.172;5.378;2023-05-19T04:59:25;11.20;99.90
7958;DHT22;4024;52.172;5.378;2023-05-19T05:01:50;11.30;99.90
7958;DHT22;4024;52.172;5.378;2023-05-19T05:04:16;11.40;99.90
7958;DHT22;4024;52.172;5.378;2023-05-19T05:06:42;11.50;99.90
7958;DHT22;4024;52.172;5.378;2023-05-19T05:09:12;11.80;99.90
7958;DHT22;4024;52.172;5.378;2023-05-19T05:11:39;12.20;99.90
7958;DHT22;4024;52.172;5.378;2023-05-19T05:14:04;12.60;99.90
7958;DHT22;4024;52.172;5.378;2023-05-19T05:16:30;13.00;99.90
7958;DHT22;4024;52.172;5.378;2023-05-19T05:18:57;13.50;99.90
7958;DHT22;4024;52.172;5.378;2023-05-19T05:21:23;13.80;99.90
7958;DHT22;4024;52.172;5.378;2023-05-19T05:23:50;14.10;99.90
7958;DHT22;4024;52.172;5.378;2023-05-19T05:26:19;14.40;99.90
7958;DHT22;4024;52.172;5.378;2023-05-19T05:28:48;14.80;99.90
7958;DHT22;4024;52.172;5.378;2023-05-19T05:31:14;15.10;99.90
7958;DHT22;4024;52.172;5.378;2023-05-19T05:33:41;15.50;99.90
7958;DHT22;4024;52.172;5.378;2023-05-19T05:36:07;15.90;99.90
7958;DHT22;4024;52.172;5.378;2023-05-19T05:38:32;16.30;99.90
7958;DHT22;4024;52.172;5.378;2023-05-19T05:40:58;16.70;99.90
7958;DHT22;4024;52.172;5.378;2023-05-19T05:43:24;17.00;99.90
7958;DHT22;4024;52.172;5.378;2023-05-19T05:45:50;17.40;99.90
7958;DHT22;4024;52.172;5.378;2023-05-19T05:48:16;17.70;99.90
7958;DHT22;4024;52.172;5.378;2023-05-19T05:50:42;18.00;99.90
7958;DHT22;4024;52.172;5.378;2023-05-19T05:53:13;18.40;99.90
7958;DHT22;4024;52.172;5.378;2023-05-19T05:55:42;18.70;99.90
7958;DHT22;4024;52.172;5.378;2023-05-19T05:58:07;19.00;99.90
7958;DHT22;4024;52.172;5.378;2023-05-19T06:00:36;19.30;99.90
7958;DHT22;4024;52.172;5.378;2023-05-19T06:03:01;19.60;99.90
7958;DHT22;4024;52.172;5.378;2023-05-19T06:05:27;19.90;99.90
7958;DHT22;4024;52.172;5.378;2023-05-19T06:07:52;20.20;99.90
7958;DHT22;4024;52.172;5.378;2023-05-19T06:10:18;20.60;99.90
7958;DHT22;4024;52.172;5.378;2023-05-19T06:12:44;20.70;99.90
7958;DHT22;4024;52.172;5.378;2023-05-19T06:15:09;20.90;99.90
7958;DHT22;4024;52.172;5.378;2023-05-19T06:17:35;21.10;99.90
7958;DHT22;4024;52.172;5.378;2023-05-19T06:20:04;21.30;99.90
7958;DHT22;4024;52.172;5.378;2023-05-19T06:22:31;21.40;99.90
7958;DHT22;4024;52.172;5.378;2023-05-19T06:24:56;21.60;99.90
7958;DHT22;4024;52.172;5.378;2023-05-19T06:27:22;21.80;99.90
7958;DHT22;4024;52.172;5.378;2023-05-19T06:29:47;21.90;99.90
7958;DHT22;4024;52.172;5.378;2023-05-19T06:32:13;22.10;99.90
7958;DHT22;4024;52.172;5.378;2023-05-19T06:34:39;22.10;99.90
7958;DHT22;4024;52.172;5.378;2023-05-19T06:37:05;22.00;99.90
7958;DHT22;4024;52.172;5.378;2023-05-19T06:39:30;22.00;99.90
7958;DHT22;4024;52.172;5.378;2023-05-19T06:41:56;22.00;99.90
7958;DHT22;4024;52.172;5.378;2023-05-19T06:44:21;22.00;99.90
7958;DHT22;4024;52.172;5.378;2023-05-19T06:46:47;22.00;99.90
7958;DHT22;4024;52.172;5.378;2023-05-19T06:49:13;22.10;99.90
7958;DHT22;4024;52.172;5.378;2023-05-19T06:51:38;22.20;99.90
7958;DHT22;4024;52.172;5.378;2023-05-19T06:54:04;22.30;99.90
7958;DHT22;4024;52.172;5.378;2023-05-19T06:56:29;22.30;99.90
7958;DHT22;4024;52.172;5.378;2023-05-19T06:58:55;22.40;99.90
7958;DHT22;4024;52.172;5.378;2023-05-19T07:01:21;22.30;99.90
7958;DHT22;4024;52.172;5.378;2023-05-19T07:03:46;22.30;99.50
7958;DHT22;4024;52.172;5.378;2023-05-19T07:06:12;22.30;99.30
7958;DHT22;4024;52.172;5.378;2023-05-19T07:08:37;22.20;99.40
7958;DHT22;4024;52.172;5.378;2023-05-19T07:11:03;22.10;99.30
7958;DHT22;4024;52.172;5.378;2023-05-19T07:13:29;22.00;99.10
7958;DHT22;4024;52.172;5.378;2023-05-19T07:15:54;21.80;99.00
7958;DHT22;4024;52.172;5.378;2023-05-19T07:18:21;21.70;99.30
7958;DHT22;4024;52.172;5.378;2023-05-19T07:20:46;21.60;99.20
7958;DHT22;4024;52.172;5.378;2023-05-19T07:23:12;21.40;99.30
7958;DHT22;4024;52.172;5.378;2023-05-19T07:25:38;21.20;99.30
7958;DHT22;4024;52.172;5.378;2023-05-19T07:28:03;21.10;99.40
7958;DHT22;4024;52.172;5.378;2023-05-19T07:30:29;20.90;99.40
7958;DHT22;4024;52.172;5.378;2023-05-19T07:32:55;20.80;99.50
7958;DHT22;4024;52.172;5.378;2023-05-19T07:35:21;20.70;99.80
7958;DHT22;4024;52.172;5.378;2023-05-19T07:37:50;20.60;99.90
7958;DHT22;4024;52.172;5.378;2023-05-19T07:40:16;20.50;99.90
7958;DHT22;4024;52.172;5.378;2023-05-19T07:42:42;20.40;99.90
7958;DHT22;4024;52.172;5.378;2023-05-19T07:45:09;20.20;99.90
7958;DHT22;4024;52.172;5.378;2023-05-19T07:47:35;20.30;99.90
7958;DHT22;4024;52.172;5.378;2023-05-19T07:50:01;20.20;99.90
7958;DHT22;4024;52.172;5.378;2023-05-19T07:52:27;20.10;99.90
7958;DHT22;4024;52.172;5.378;2023-05-19T07:54:53;20.10;99.90
7958;DHT22;4024;52.172;5.378;2023-05-19T07:57:18;20.10;99.90
7958;DHT22;4024;52.172;5.378;2023-05-19T07:59:44;20.00;99.50
7958;DHT22;4024;52.172;5.378;2023-05-19T08:02:10;20.00;99.20
7958;DHT22;4024;52.172;5.378;2023-05-19T08:04:35;19.90;99.40
7958;DHT22;4024;52.172;5.378;2023-05-19T08:07:01;19.90;99.90
7958;DHT22;4024;52.172;5.378;2023-05-19T08:09:26;20.00;99.90
7958;DHT22;4024;52.172;5.378;2023-05-19T08:11:52;19.90;99.70
7958;DHT22;4024;52.172;5.378;2023-05-19T08:14:18;20.00;99.10
7958;DHT22;4024;52.172;5.378;2023-05-19T08:16:44;20.00;99.70
7958;DHT22;4024;52.172;5.378;2023-05-19T08:19:10;20.00;99.10
7958;DHT22;4024;52.172;5.378;2023-05-19T08:21:36;20.10;99.20
7958;DHT22;4024;52.172;5.378;2023-05-19T08:24:02;20.00;98.90
7958;DHT22;4024;52.172;5.378;2023-05-19T08:26:28;20.00;98.90
7958;DHT22;4024;52.172;5.378;2023-05-19T08:28:54;20.10;98.10
7958;DHT22;4024;52.172;5.378;2023-05-19T08:31:20;20.10;97.90
7958;DHT22;4024;52.172;5.378;2023-05-19T08:33:46;20.00;97.80
7958;DHT22;4024;52.172;5.378;2023-05-19T08:36:12;20.10;98.30
7958;DHT22;4024;52.172;5.378;2023-05-19T08:38:38;20.10;98.10
7958;DHT22;4024;52.172;5.378;2023-05-19T08:41:03;20.10;97.90
7958;DHT22;4024;52.172;5.378;2023-05-19T08:43:30;20.10;97.00
7958;DHT22;4024;52.172;5.378;2023-05-19T08:45:58;20.10;95.90
7958;DHT22;4024;52.172;5.378;2023-05-19T08:48:26;20.10;95.50
7958;DHT22;4024;52.172;5.378;2023-05-19T08:51:09;20.10;94.50
7958;DHT22;4024;52.172;5.378;2023-05-19T08:53:39;20.20;93.80
7958;DHT22;4024;52.172;5.378;2023-05-19T08:56:10;20.30;95.10
7958;DHT22;4024;52.172;5.378;2023-05-19T08:58:41;20.40;95.00
7958;DHT22;4024;52.172;5.378;2023-05-19T09:01:09;20.50;94.60
7958;DHT22;4024;52.172;5.378;2023-05-19T09:03:38;20.60;94.60
7958;DHT22;4024;52.172;5.378;2023-05-19T09:06:08;20.70;93.60
7958;DHT22;4024;52.172;5.378;2023-05-19T09:08:34;20.90;92.30
7958;DHT22;4024;52.172;5.378;2023-05-19T09:11:01;20.90;90.70
7958;DHT22;4024;52.172;5.378;2023-05-19T09:13:27;21.00;89.60
7958;DHT22;4024;52.172;5.378;2023-05-19T09:15:55;21.10;87.00
7958;DHT22;4024;52.172;5.378;2023-05-19T09:18:24;21.00;85.30
7958;DHT22;4024;52.172;5.378;2023-05-19T09:20:50;21.10;83.80
7958;DHT22;4024;52.172;5.378;2023-05-19T09:23:24;21.10;78.90
7958;DHT22;4024;52.172;5.378;2023-05-19T09:25:53;21.20;82.20
7958;DHT22;4024;52.172;5.378;2023-05-19T09:28:28;21.30;79.90
7958;DHT22;4024;52.172;5.378;2023-05-19T09:33:24;21.60;80.10
7958;DHT22;4024;52.172;5.378;2023-05-19T09:35:49;21.80;80.40
7958;DHT22;4024;52.172;5.378;2023-05-19T09:38:18;21.90;79.80
7958;DHT22;4024;52.172;5.378;2023-05-19T09:40:47;22.00;77.40
7958;DHT22;4024;52.172;5.378;2023-05-19T09:43:14;22.00;77.90
7958;DHT22;4024;52.172;5.378;2023-05-19T09:45:40;22.00;77.90
7958;DHT22;4024;52.172;5.378;2023-05-19T09:48:06;22.00;75.40
7958;DHT22;4024;52.172;5.378;2023-05-19T09:50:32;21.90;76.10
7958;DHT22;4024;52.172;5.378;2023-05-19T09:52:58;21.90;76.90
7958;DHT22;4024;52.172;5.378;2023-05-19T09:55:25;21.90;76.60
7958;DHT22;4024;52.172;5.378;2023-05-19T09:57:54;21.90;77.50
7958;DHT22;4024;52.172;5.378;2023-05-19T10:00:22;21.90;77.00
7958;DHT22;4024;52.172;5.378;2023-05-19T10:02:48;21.90;77.70
7958;DHT22;4024;52.172;5.378;2023-05-19T10:05:19;22.00;79.40
7958;DHT22;4024;52.172;5.378;2023-05-19T10:07:45;22.00;78.90
7958;DHT22;4024;52.172;5.378;2023-05-19T10:10:13;22.10;77.80
7958;DHT22;4024;52.172;5.378;2023-05-19T10:12:41;22.10;76.40
7958;DHT22;4024;52.172;5.378;2023-05-19T10:15:08;22.10;73.80
7958;DHT22;4024;52.172;5.378;2023-05-19T10:17:37;22.00;73.70
7958;DHT22;4024;52.172;5.378;2023-05-19T10:20:03;22.00;74.20
7958;DHT22;4024;52.172;5.378;2023-05-19T10:22:31;22.00;74.80
7958;DHT22;4024;52.172;5.378;2023-05-19T10:24:57;22.00;75.50
7958;DHT22;4024;52.172;5.378;2023-05-19T10:27:25;22.00;74.60
7958;DHT22;4024;52.172;5.378;2023-05-19T10:29:53;21.90;74.20
7958;DHT22;4024;52.172;5.378;2023-05-19T10:32:25;21.90;74.00
7958;DHT22;4024;52.172;5.378;2023-05-19T10:34:57;21.90;73.00
7958;DHT22;4024;52.172;5.378;2023-05-19T10:40:21;21.80;73.50
7958;DHT22;4024;52.172;5.378;2023-05-19T10:45:47;21.60;74.60
7958;DHT22;4024;52.172;5.378;2023-05-19T10:48:14;21.60;75.10
7958;DHT22;4024;52.172;5.378;2023-05-19T10:50:43;21.50;75.40
7958;DHT22;4024;52.172;5.378;2023-05-19T10:53:14;21.50;75.20
7958;DHT22;4024;52.172;5.378;2023-05-19T10:55:54;21.40;76.50
7958;DHT22;4024;52.172;5.378;2023-05-19T11:01:18;21.30;76.50
7958;DHT22;4024;52.172;5.378;2023-05-19T11:03:53;21.30;77.50
7958;DHT22;4024;52.172;5.378;2023-05-19T11:06:32;21.30;77.50
7958;DHT22;4024;52.172;5.378;2023-05-19T11:09:00;21.30;76.00
7958;DHT22;4024;52.172;5.378;2023-05-19T11:11:41;21.40;73.80
7958;DHT22;4024;52.172;5.378;2023-05-19T11:14:10;21.40;72.50
7958;DHT22;4024;52.172;5.378;2023-05-19T11:16:38;21.40;70.90
7958;DHT22;4024;52.172;5.378;2023-05-19T11:19:06;21.40;71.30
7958;DHT22;4024;52.172;5.378;2023-05-19T11:21:50;21.40;71.20
7958;DHT22;4024;52.172;5.378;2023-05-19T11:26:57;21.40;69.80
7958;DHT22;4024;52.172;5.378;2023-05-19T11:29:23;21.40;72.00
7958;DHT22;4024;52.172;5.378;2023-05-19T11:31:48;21.40;71.90
7958;DHT22;4024;52.172;5.378;2023-05-19T11:34:16;21.40;71.20
7958;DHT22;4024;52.172;5.378;2023-05-19T11:36:43;21.40;71.70
7958;DHT22;4024;52.172;5.378;2023-05-19T11:39:10;21.40;66.90
7958;DHT22;4024;52.172;5.378;2023-05-19T11:41:38;21.40;64.40
7958;DHT22;4024;52.172;5.378;2023-05-19T11:44:09;21.40;63.80
7958;DHT22;4024;52.172;5.378;2023-05-19T11:46:35;21.40;63.80
7958;DHT22;4024;52.172;5.378;2023-05-19T11:49:03;21.40;65.70
7958;DHT22;4024;52.172;5.378;2023-05-19T11:51:29;21.40;66.10
7958;DHT22;4024;52.172;5.378;2023-05-19T11:53:54;21.40;68.60
7958;DHT22;4024;52.172;5.378;2023-05-19T11:56:20;21.40;72.70
7958;DHT22;4024;52.172;5.378;2023-05-19T11:58:46;21.50;75.00
7958;DHT22;4024;52.172;5.378;2023-05-19T12:01:11;21.50;71.70
7958;DHT22;4024;52.172;5.378;2023-05-19T12:03:37;21.60;70.30
7958;DHT22;4024;52.172;5.378;2023-05-19T12:06:05;21.60;71.00
7958;DHT22;4024;52.172;5.378;2023-05-19T12:08:33;21.60;72.80
7958;DHT22;4024;52.172;5.378;2023-05-19T12:10:59;21.70;74.00
7958;DHT22;4024;52.172;5.378;2023-05-19T12:13:24;21.70;73.60
7958;DHT22;4024;52.172;5.378;2023-05-19T12:15:50;21.80;74.80
7958;DHT22;4024;52.172;5.378;2023-05-19T12:18:18;21.80;76.80
7958;DHT22;4024;52.172;5.378;2023-05-19T12:20:43;21.90;77.10
7958;DHT22;4024;52.172;5.378;2023-05-19T12:23:11;21.90;76.80
7958;DHT22;4024;52.172;5.378;2023-05-19T12:25:38;21.90;77.60
7958;DHT22;4024;52.172;5.378;2023-05-19T12:28:03;21.90;78.10
7958;DHT22;4024;52.172;5.378;2023-05-19T12:30:30;21.90;79.00
7958;DHT22;4024;52.172;5.378;2023-05-19T12:32:56;21.90;78.30
7958;DHT22;4024;52.172;5.378;2023-05-19T12:35:28;22.00;79.30
7958;DHT22;4024;52.172;5.378;2023-05-19T12:37:54;22.00;80.00
7958;DHT22;4024;52.172;5.378;2023-05-19T12:40:20;22.00;81.10
7958;DHT22;4024;52.172;5.378;2023-05-19T12:42:48;22.10;80.00
7958;DHT22;4024;52.172;5.378;2023-05-19T12:45:19;22.10;78.40
7958;DHT22;4024;52.172;5.378;2023-05-19T12:47:47;22.20;78.00
7958;DHT22;4024;52.172;5.378;2023-05-19T12:50:13;22.30;76.30
7958;DHT22;4024;52.172;5.378;2023-05-19T12:52:47;22.30;76.30
7958;DHT22;4024;52.172;5.378;2023-05-19T12:55:14;22.30;75.20
7958;DHT22;4024;52.172;5.378;2023-05-19T12:57:43;22.40;74.00
7958;DHT22;4024;52.172;5.378;2023-05-19T13:00:16;22.40;72.60
7958;DHT22;4024;52.172;5.378;2023-05-19T13:03:05;22.50;71.10
7958;DHT22;4024;52.172;5.378;2023-05-19T13:05:36;22.40;72.00
7958;DHT22;4024;52.172;5.378;2023-05-19T13:08:07;22.50;71.70
7958;DHT22;4024;52.172;5.378;2023-05-19T13:10:34;22.50;72.30
7958;DHT22;4024;52.172;5.378;2023-05-19T13:13:00;22.50;72.10
7958;DHT22;4024;52.172;5.378;2023-05-19T13:15:28;22.60;71.60
7958;DHT22;4024;52.172;5.378;2023-05-19T13:17:56;22.50;71.60
7958;DHT22;4024;52.172;5.378;2023-05-19T13:20:22;22.60;71.80
7958;DHT22;4024;52.172;5.378;2023-05-19T13:22:49;22.50;71.60
7958;DHT22;4024;52.172;5.378;2023-05-19T13:25:15;22.50;70.20
7958;DHT22;4024;52.172;5.378;2023-05-19T13:27:41;22.60;69.40
7958;DHT22;4024;52.172;5.378;2023-05-19T13:30:07;22.50;70.00
7958;DHT22;4024;52.172;5.378;2023-05-19T13:32:33;22.50;69.50
7958;DHT22;4024;52.172;5.378;2023-05-19T13:35:00;22.50;69.00
7958;DHT22;4024;52.172;5.378;2023-05-19T13:37:26;22.50;68.60
7958;DHT22;4024;52.172;5.378;2023-05-19T13:39:52;22.50;69.60
7958;DHT22;4024;52.172;5.378;2023-05-19T13:42:17;22.60;70.60
7958;DHT22;4024;52.172;5.378;2023-05-19T13:44:46;22.50;71.00
7958;DHT22;4024;52.172;5.378;2023-05-19T13:47:12;22.60;70.70
7958;DHT22;4024;52.172;5.378;2023-05-19T13:49:38;22.70;70.90
7958;DHT22;4024;52.172;5.378;2023-05-19T13:52:04;22.80;71.10
7958;DHT22;4024;52.172;5.378;2023-05-19T13:54:32;22.80;71.30
7958;DHT22;4024;52.172;5.378;2023-05-19T13:56:58;22.80;70.60
7958;DHT22;4024;52.172;5.378;2023-05-19T13:59:26;22.80;68.70
7958;DHT22;4024;52.172;5.378;2023-05-19T14:01:52;22.90;68.10
7958;DHT22;4024;52.172;5.378;2023-05-19T14:04:18;22.90;68.50
7958;DHT22;4024;52.172;5.378;2023-05-19T14:06:44;22.90;68.60
7958;DHT22;4024;52.172;5.378;2023-05-19T14:09:11;22.90;69.30
7958;DHT22;4024;52.172;5.378;2023-05-19T14:11:36;22.90;67.80
7958;DHT22;4024;52.172;5.378;2023-05-19T14:14:02;22.90;68.10
7958;DHT22;4024;52.172;5.378;2023-05-19T14:16:28;22.90;68.10
7958;DHT22;4024;52.172;5.378;2023-05-19T14:18:54;23.00;68.50
7958;DHT22;4024;52.172;5.378;2023-05-19T14:21:20;22.90;68.30
7958;DHT22;4024;52.172;5.378;2023-05-19T14:23:45;23.00;68.90
7958;DHT22;4024;52.172;5.378;2023-05-19T14:26:11;23.00;67.70
7958;DHT22;4024;52.172;5.378;2023-05-19T14:28:36;22.90;67.20
7958;DHT22;4024;52.172;5.378;2023-05-19T14:31:02;22.90;68.30
7958;DHT22;4024;52.172;5.378;2023-05-19T14:33:28;22.80;68.00
7958;DHT22;4024;52.172;5.378;2023-05-19T14:35:53;22.90;68.40
7958;DHT22;4024;52.172;5.378;2023-05-19T14:38:20;22.90;67.80
7958;DHT22;4024;52.172;5.378;2023-05-19T14:40:45;22.90;67.20
7958;DHT22;4024;52.172;5.378;2023-05-19T14:43:12;22.90;68.20
7958;DHT22;4024;52.172;5.378;2023-05-19T14:45:39;23.00;68.40
7958;DHT22;4024;52.172;5.378;2023-05-19T14:48:06;23.00;68.20
7958;DHT22;4024;52.172;5.378;2023-05-19T14:50:32;23.00;66.80
7958;DHT22;4024;52.172;5.378;2023-05-19T14:52:57;23.10;66.30
7958;DHT22;4024;52.172;5.378;2023-05-19T14:55:23;23.00;66.40
7958;DHT22;4024;52.172;5.378;2023-05-19T14:57:49;23.10;67.30
7958;DHT22;4024;52.172;5.378;2023-05-19T15:00:15;23.00;67.70
7958;DHT22;4024;52.172;5.378;2023-05-19T15:02:42;23.00;66.00
7958;DHT22;4024;52.172;5.378;2023-05-19T15:05:07;23.00;66.00
7958;DHT22;4024;52.172;5.378;2023-05-19T15:07:33;23.00;67.10
7958;DHT22;4024;52.172;5.378;2023-05-19T15:09:59;23.00;66.00
7958;DHT22;4024;52.172;5.378;2023-05-19T15:12:25;23.00;65.80
7958;DHT22;4024;52.172;5.378;2023-05-19T15:14:51;23.00;65.80
7958;DHT22;4024;52.172;5.378;2023-05-19T15:17:17;22.90;66.40
7958;DHT22;4024;52.172;5.378;2023-05-19T15:19:42;23.00;65.80
7958;DHT22;4024;52.172;5.378;2023-05-19T15:22:08;22.90;65.40
7958;DHT22;4024;52.172;5.378;2023-05-19T15:24:34;22.90;66.50
7958;DHT22;4024;52.172;5.378;2023-05-19T15:27:00;23.00;67.10
7958;DHT22;4024;52.172;5.378;2023-05-19T15:29:26;22.90;66.60
7958;DHT22;4024;52.172;5.378;2023-05-19T15:31:52;23.00;66.90
7958;DHT22;4024;52.172;5.378;2023-05-19T15:34:18;23.00;67.60
7958;DHT22;4024;52.172;5.378;2023-05-19T15:36:44;23.00;66.60
7958;DHT22;4024;52.172;5.378;2023-05-19T15:39:10;23.00;66.00
7958;DHT22;4024;52.172;5.378;2023-05-19T15:41:36;23.00;66.60
7958;DHT22;4024;52.172;5.378;2023-05-19T15:44:01;23.00;66.70
7958;DHT22;4024;52.172;5.378;2023-05-19T15:46:27;23.00;65.20
7958;DHT22;4024;52.172;5.378;2023-05-19T15:48:54;23.00;66.10
7958;DHT22;4024;52.172;5.378;2023-05-19T15:51:20;23.00;65.60
7958;DHT22;4024;52.172;5.378;2023-05-19T15:53:45;22.90;65.60
7958;DHT22;4024;52.172;5.378;2023-05-19T15:56:11;22.90;65.90
7958;DHT22;4024;52.172;5.378;2023-05-19T15:58:38;22.90;65.80
7958;DHT22;4024;52.172;5.378;2023-05-19T16:01:04;22.90;66.10
7958;DHT22;4024;52.172;5.378;2023-05-19T16:03:31;23.00;67.00
7958;DHT22;4024;52.172;5.378;2023-05-19T16:05:57;23.10;66.20
7958;DHT22;4024;52.172;5.378;2023-05-19T16:08:22;23.10;66.10
7958;DHT22;4024;52.172;5.378;2023-05-19T16:10:48;23.20;66.90
7958;DHT22;4024;52.172;5.378;2023-05-19T16:13:13;23.20;67.30
7958;DHT22;4024;52.172;5.378;2023-05-19T16:23:25;23.30;64.20
7958;DHT22;4024;52.172;5.378;2023-05-19T16:25:52;23.30;64.50
7958;DHT22;4024;52.172;5.378;2023-05-19T16:28:19;23.30;64.70
7958;DHT22;4024;52.172;5.378;2023-05-19T16:30:44;23.30;65.20
7958;DHT22;4024;52.172;5.378;2023-05-19T16:33:10;23.30;65.20
7958;DHT22;4024;52.172;5.378;2023-05-19T16:35:36;23.30;66.30
7958;DHT22;4024;52.172;5.378;2023-05-19T16:38:02;23.30;67.20
7958;DHT22;4024;52.172;5.378;2023-05-19T16:40:27;23.30;65.40
7958;DHT22;4024;52.172;5.378;2023-05-19T16:42:53;23.40;66.40